createdAt,value
2022-08-30T00:00:45.340Z,9.747430
2022-08-30T00:01:45.324Z,9.747377
2022-08-30T00:02:45.571Z,9.747557
2022-08-30T00:03:45.438Z,9.747642
2022-08-30T00:04:45.300Z,9.747468
2022-08-30T00:05:45.291Z,9.747455
2022-08-30T00:06:45.284Z,9.747334
2022-08-30T00:07:45.308Z,9.747167
2022-08-30T00:08:45.260Z,9.747425
2022-08-30T00:09:46.260Z,9.747455
2022-08-30T00:10:45.270Z,9.747407
2022-08-30T00:11:45.240Z,9.747500
2022-08-30T00:12:45.255Z,9.747449
2022-08-30T00:13:45.223Z,9.747505
2022-08-30T00:14:45.215Z,9.747437
2022-08-30T00:15:45.271Z,9.747556
2022-08-30T00:16:45.200Z,9.747464
2022-08-30T00:17:45.223Z,9.747422
2022-08-30T00:18:45.190Z,9.747512
2022-08-30T00:19:45.178Z,9.747454
2022-08-30T00:20:45.178Z,9.747396
2022-08-30T00:21:45.167Z,9.747334
2022-08-30T00:22:45.187Z,9.747579
2022-08-30T00:23:45.140Z,9.747494
2022-08-30T00:24:45.138Z,9.747395
2022-08-30T00:25:45.131Z,9.747554
2022-08-30T00:26:45.126Z,9.747532
2022-08-30T00:27:45.137Z,9.747400
2022-08-30T00:28:45.106Z,9.747312
2022-08-30T00:29:45.102Z,9.747282
2022-08-30T00:30:45.171Z,9.747394
2022-08-30T00:31:45.082Z,9.747339
2022-08-30T00:32:45.098Z,9.747336
2022-08-30T00:33:45.066Z,9.747333
2022-08-30T00:34:45.069Z,9.747340
2022-08-30T00:35:45.053Z,9.747269
2022-08-30T00:36:45.048Z,9.747289
2022-08-30T00:37:45.067Z,9.747309
2022-08-30T00:38:45.035Z,9.747343
2022-08-30T00:39:45.025Z,9.747313
2022-08-30T00:40:45.073Z,9.747346
2022-08-30T00:41:45.017Z,9.747392
2022-08-30T00:42:45.027Z,9.747400
2022-08-30T00:43:45.995Z,9.747272
2022-08-30T00:44:44.990Z,9.747451
2022-08-30T00:45:44.981Z,9.747517
2022-08-30T00:46:45.024Z,9.747437
2022-08-30T00:47:44.994Z,9.747309
2022-08-30T00:48:44.959Z,9.747314
2022-08-30T00:49:44.953Z,9.747132
2022-08-30T00:50:44.943Z,9.747327
2022-08-30T00:51:44.943Z,9.747521
2022-08-30T00:52:44.981Z,9.747360
2022-08-30T00:53:44.920Z,9.747336
2022-08-30T00:54:44.912Z,9.747457
2022-08-30T00:55:44.906Z,9.747475
2022-08-30T00:56:44.902Z,9.747539
2022-08-30T00:57:44.924Z,9.747248
2022-08-30T00:58:44.890Z,9.747057
2022-08-30T00:59:44.877Z,9.747184
2022-08-30T01:00:44.890Z,9.747204
2022-08-30T01:01:44.906Z,9.747330
2022-08-30T01:02:44.904Z,9.747262
2022-08-30T01:03:44.856Z,9.747310
2022-08-30T01:04:44.840Z,9.747276
2022-08-30T01:05:44.828Z,9.747397
2022-08-30T01:06:44.825Z,9.747486
2022-08-30T01:07:44.850Z,9.747363
2022-08-30T01:08:44.813Z,9.747355
2022-08-30T01:09:44.802Z,9.747356
2022-08-30T01:10:44.793Z,9.747291
2022-08-30T01:11:44.789Z,9.747408
2022-08-30T01:12:44.808Z,9.747403
2022-08-30T01:13:44.767Z,9.747428
2022-08-30T01:14:44.762Z,9.747399
2022-08-30T01:15:44.805Z,9.747406
2022-08-30T01:16:44.746Z,9.747485
2022-08-30T01:17:44.778Z,9.747327
2022-08-30T01:18:44.734Z,9.747250
2022-08-30T01:19:44.722Z,9.747203
2022-08-30T01:20:44.742Z,9.747173
2022-08-30T01:21:44.731Z,9.747135
2022-08-30T01:22:45.025Z,9.747091
2022-08-30T01:23:44.682Z,9.747256
2022-08-30T01:24:45.694Z,9.747416
2022-08-30T01:25:44.684Z,9.747369
2022-08-30T01:26:44.676Z,9.747237
2022-08-30T01:27:44.696Z,9.747224
2022-08-30T01:28:44.658Z,9.747308
2022-08-30T01:29:44.648Z,9.747387
2022-08-30T01:30:44.693Z,9.747305
2022-08-30T01:31:44.639Z,9.747356
2022-08-30T01:32:44.630Z,9.747401
2022-08-30T01:33:44.650Z,9.747268
2022-08-30T01:34:44.613Z,9.747292
2022-08-30T01:35:44.604Z,9.747354
2022-08-30T01:36:45.114Z,9.747317
2022-08-30T01:37:44.620Z,9.747296
2022-08-30T01:38:44.580Z,9.747446
2022-08-30T01:39:44.575Z,9.747365
2022-08-30T01:40:44.597Z,9.747322
2022-08-30T01:41:44.557Z,9.747331
2022-08-30T01:42:44.577Z,9.747308
2022-08-30T01:43:44.544Z,9.747498
2022-08-30T01:44:44.533Z,9.747443
2022-08-30T01:45:44.577Z,9.747333
2022-08-30T01:46:44.518Z,9.747427
2022-08-30T01:47:44.538Z,9.747403
2022-08-30T01:48:50.243Z,9.747379
2022-08-30T01:49:45.497Z,9.747407
2022-08-30T01:50:44.485Z,9.747338
2022-08-30T01:51:44.479Z,9.747437
2022-08-30T01:52:44.496Z,9.747366
2022-08-30T01:53:44.463Z,9.747381
2022-08-30T01:54:44.463Z,9.747451
2022-08-30T01:55:44.450Z,9.747402
2022-08-30T01:56:44.444Z,9.747425
2022-08-30T01:57:44.465Z,9.747367
2022-08-30T01:58:44.442Z,9.747313
2022-08-30T02:00:16.935Z,9.747308
2022-08-30T02:00:44.412Z,9.747285
2022-08-30T02:01:44.439Z,9.747327
2022-08-30T02:02:44.569Z,9.747409
2022-08-30T02:03:44.486Z,9.747387
2022-08-30T02:04:44.380Z,9.747411
2022-08-30T02:05:44.380Z,9.747458
2022-08-30T02:06:44.363Z,9.747525
2022-08-30T02:07:44.382Z,9.747496
2022-08-30T02:08:44.353Z,9.747530
2022-08-30T02:09:44.357Z,9.747489
2022-08-30T02:10:44.335Z,9.747396
2022-08-30T02:11:44.327Z,9.747356
2022-08-30T02:12:44.354Z,9.747436
2022-08-30T02:13:44.313Z,9.747344
2022-08-30T02:14:44.311Z,9.747397
2022-08-30T02:15:44.309Z,9.747395
2022-08-30T02:16:44.327Z,9.747326
2022-08-30T02:17:44.285Z,9.747295
2022-08-30T02:18:44.292Z,9.747267
2022-08-30T02:19:44.263Z,9.747323
2022-08-30T02:20:44.257Z,9.747404
2022-08-30T02:21:44.246Z,9.747425
2022-08-30T02:22:49.162Z,9.747420
2022-08-30T02:23:45.258Z,9.747333
2022-08-30T02:24:44.229Z,9.747397
2022-08-30T02:25:44.225Z,9.747415
2022-08-30T02:26:44.209Z,9.747328
2022-08-30T02:27:44.206Z,9.747253
2022-08-30T02:28:50.091Z,9.747236
2022-08-30T02:29:45.181Z,9.747312
2022-08-30T02:30:44.220Z,9.747350
2022-08-30T02:31:44.171Z,9.747498
2022-08-30T02:32:44.172Z,9.747480
2022-08-30T02:33:44.178Z,9.747394
2022-08-30T02:34:44.149Z,9.747406
2022-08-30T02:35:44.138Z,9.747506
2022-08-30T02:36:44.126Z,9.747491
2022-08-30T02:37:44.144Z,9.747468
2022-08-30T02:38:44.138Z,9.747471
2022-08-30T02:39:44.106Z,9.747440
2022-08-30T02:40:44.174Z,9.747289
2022-08-30T02:41:44.089Z,9.747282
2022-08-30T02:42:44.080Z,9.747276
2022-08-30T02:43:44.126Z,9.747483
2022-08-30T02:44:44.074Z,9.747384
2022-08-30T02:45:44.129Z,9.747407
2022-08-30T02:46:44.053Z,9.747323
2022-08-30T02:47:46.981Z,9.747383
2022-08-30T02:48:45.074Z,9.747165
2022-08-30T02:49:44.030Z,9.747379
2022-08-30T02:50:44.026Z,9.747354
2022-08-30T02:51:44.017Z,9.747395
2022-08-30T02:52:48.108Z,9.747412
2022-08-30T02:53:44.047Z,9.747365
2022-08-30T02:54:43.998Z,9.747272
2022-08-30T02:55:43.989Z,9.747117
2022-08-30T02:56:44.006Z,9.747192
2022-08-30T02:57:44.004Z,9.747307
2022-08-30T02:58:44.013Z,9.747276
2022-08-30T02:59:43.963Z,9.747329
2022-08-30T03:00:44.029Z,9.747194
2022-08-30T03:01:44.001Z,9.747287
2022-08-30T03:02:43.931Z,9.747292
2022-08-30T03:03:43.986Z,9.747365
2022-08-30T03:04:43.912Z,9.747283
2022-08-30T03:05:43.908Z,9.747583
2022-08-30T03:06:43.906Z,9.747358
2022-08-30T03:07:43.894Z,9.747465
2022-08-30T03:08:43.912Z,9.747457
2022-08-30T03:09:43.883Z,9.747561
2022-08-30T03:10:43.867Z,9.747631
2022-08-30T03:11:43.867Z,9.747613
2022-08-30T03:12:43.864Z,9.747602
2022-08-30T03:13:43.881Z,9.747409
2022-08-30T03:14:43.843Z,9.747446
2022-08-30T03:15:43.842Z,9.747503
2022-08-30T03:16:43.890Z,9.747405
2022-08-30T03:17:43.820Z,9.747463
2022-08-30T03:18:43.852Z,9.747359
2022-08-30T03:19:43.813Z,9.747461
2022-08-30T03:20:44.002Z,9.747602
2022-08-30T03:21:43.795Z,9.747415
2022-08-30T03:22:43.790Z,9.747247
2022-08-30T03:23:43.801Z,9.747265
2022-08-30T03:24:43.775Z,9.747409
2022-08-30T03:25:43.763Z,9.747558
2022-08-30T03:26:46.442Z,9.747558
2022-08-30T03:27:44.748Z,9.747597
2022-08-30T03:28:43.772Z,9.747510
2022-08-30T03:29:43.736Z,9.747444
2022-08-30T03:30:43.734Z,9.747342
2022-08-30T03:31:53.122Z,9.747530
2022-08-30T03:32:44.718Z,9.747446
2022-08-30T03:33:43.730Z,9.747527
2022-08-30T03:34:43.699Z,9.747444
2022-08-30T03:35:43.690Z,9.747500
2022-08-30T03:36:43.687Z,9.747553
2022-08-30T03:37:43.679Z,9.747488
2022-08-30T03:38:43.698Z,9.747463
2022-08-30T03:39:43.661Z,9.747268
2022-08-30T03:40:43.714Z,9.747301
2022-08-30T03:41:43.651Z,9.747428
2022-08-30T03:42:43.638Z,9.747376
2022-08-30T03:43:43.629Z,9.747416
2022-08-30T03:44:43.651Z,9.747449
2022-08-30T03:45:43.689Z,9.747471
2022-08-30T03:46:43.606Z,9.747291
2022-08-30T03:47:43.596Z,9.747342
2022-08-30T03:48:43.600Z,9.747451
2022-08-30T03:49:43.612Z,9.747420
2022-08-30T03:50:43.581Z,9.747537
2022-08-30T03:51:43.573Z,9.747304
2022-08-30T03:52:43.569Z,9.747270
2022-08-30T03:53:43.558Z,9.747356
2022-08-30T03:54:43.588Z,9.747406
2022-08-30T03:55:43.546Z,9.747462
2022-08-30T03:56:43.535Z,9.747401
2022-08-30T03:57:43.862Z,9.747438
2022-08-30T03:58:43.522Z,9.747431
2022-08-30T03:59:43.540Z,9.747378
2022-08-30T04:00:43.567Z,9.747413
2022-08-30T04:01:43.656Z,9.747465
2022-08-30T04:02:43.539Z,9.747404
2022-08-30T04:03:43.482Z,9.747421
2022-08-30T04:04:43.500Z,9.747436
2022-08-30T04:05:43.476Z,9.747362
2022-08-30T04:06:43.456Z,9.747395
2022-08-30T04:07:43.458Z,9.747492
2022-08-30T04:08:43.460Z,9.747463
2022-08-30T04:09:43.462Z,9.747550
2022-08-30T04:10:43.433Z,9.747436
2022-08-30T04:11:43.423Z,9.747377
2022-08-30T04:12:48.919Z,9.747420
2022-08-30T04:13:45.406Z,9.747396
2022-08-30T04:14:43.433Z,9.747338
2022-08-30T04:15:43.388Z,9.747469
2022-08-30T04:16:43.462Z,9.747598
2022-08-30T04:17:44.386Z,9.747464
2022-08-30T04:18:43.372Z,9.747334
2022-08-30T04:19:43.382Z,9.747430
2022-08-30T04:20:43.364Z,9.747417
2022-08-30T04:21:43.454Z,9.747437
2022-08-30T04:22:43.336Z,9.747434
2022-08-30T04:23:43.338Z,9.747470
2022-08-30T04:24:43.349Z,9.747425
2022-08-30T04:25:43.321Z,9.747315
2022-08-30T04:26:43.310Z,9.747358
2022-08-30T04:27:43.302Z,9.747516
2022-08-30T04:28:43.291Z,9.747394
2022-08-30T04:29:43.303Z,9.747224
2022-08-30T04:30:43.267Z,9.747366
2022-08-30T04:31:43.324Z,9.747251
2022-08-30T04:32:43.242Z,9.747292
2022-08-30T04:33:44.246Z,9.747391
2022-08-30T04:34:43.261Z,9.747470
2022-08-30T04:35:43.228Z,9.747495
2022-08-30T04:36:48.233Z,9.747356
2022-08-30T04:37:44.205Z,9.747244
2022-08-30T04:38:43.228Z,9.747350
2022-08-30T04:39:43.189Z,9.747378
2022-08-30T04:40:43.238Z,9.747379
2022-08-30T04:41:43.187Z,9.747398
2022-08-30T04:42:43.168Z,9.747365
2022-08-30T04:43:43.191Z,9.747346
2022-08-30T04:44:43.151Z,9.747319
2022-08-30T04:45:43.225Z,9.747209
2022-08-30T04:46:44.734Z,9.747341
2022-08-30T04:47:43.128Z,9.747369
2022-08-30T04:48:43.152Z,9.747356
2022-08-30T04:49:43.115Z,9.747356
2022-08-30T04:50:43.116Z,9.747387
2022-08-30T04:51:43.104Z,9.747369
2022-08-30T04:52:43.097Z,9.747346
2022-08-30T04:53:43.083Z,9.747371
2022-08-30T04:54:43.103Z,9.747392
2022-08-30T04:55:43.075Z,9.747342
2022-08-30T04:56:43.065Z,9.747390
2022-08-30T04:57:43.051Z,9.747413
2022-08-30T04:58:43.043Z,9.747404
2022-08-30T04:59:43.063Z,9.747428
2022-08-30T05:00:43.062Z,9.747302
2022-08-30T05:01:45.203Z,9.747279
2022-08-30T05:02:43.076Z,9.747220
2022-08-30T05:03:43.004Z,9.747246
2022-08-30T05:04:43.023Z,9.747286
2022-08-30T05:05:42.987Z,9.747299
2022-08-30T05:06:42.984Z,9.747326
2022-08-30T05:07:42.976Z,9.747261
2022-08-30T05:08:46.609Z,9.747324
2022-08-30T05:09:42.974Z,9.747291
2022-08-30T05:10:43.951Z,9.747265
2022-08-30T05:11:42.947Z,9.747287
2022-08-30T05:12:42.934Z,9.747381
2022-08-30T05:13:42.931Z,9.747330
2022-08-30T05:14:42.955Z,9.747385
2022-08-30T05:15:42.909Z,9.747344
2022-08-30T05:16:42.941Z,9.747375
2022-08-30T05:17:42.897Z,9.747496
2022-08-30T05:18:42.888Z,9.747456
2022-08-30T05:19:42.909Z,9.747456
2022-08-30T05:20:42.871Z,9.747450
2022-08-30T05:21:42.862Z,9.747472
2022-08-30T05:22:42.859Z,9.747414
2022-08-30T05:23:42.847Z,9.747539
2022-08-30T05:24:42.880Z,9.747510
2022-08-30T05:25:42.833Z,9.747483
2022-08-30T05:26:42.882Z,9.747418
2022-08-30T05:27:42.820Z,9.747427
2022-08-30T05:28:42.812Z,9.747563
2022-08-30T05:29:42.833Z,9.747510
2022-08-30T05:30:42.792Z,9.747547
2022-08-30T05:31:42.826Z,9.747632
2022-08-30T05:32:42.794Z,9.747524
2022-08-30T05:33:42.784Z,9.747613
2022-08-30T05:34:42.794Z,9.747621
2022-08-30T05:35:42.753Z,9.747570
2022-08-30T05:36:42.744Z,9.747498
2022-08-30T05:37:42.742Z,9.747522
2022-08-30T05:38:42.732Z,9.747489
2022-08-30T05:39:45.054Z,9.747457
2022-08-30T05:40:43.796Z,9.747427
2022-08-30T05:41:42.712Z,9.747511
2022-08-30T05:42:42.702Z,9.747446
2022-08-30T05:43:42.693Z,9.747381
2022-08-30T05:44:44.342Z,9.747357
2022-08-30T05:45:42.689Z,9.747422
2022-08-30T05:46:42.675Z,9.747452
2022-08-30T05:47:42.661Z,9.747354
2022-08-30T05:48:42.658Z,9.747465
2022-08-30T05:49:42.670Z,9.747580
2022-08-30T05:50:42.644Z,9.747487
2022-08-30T05:51:43.285Z,9.747520
2022-08-30T05:52:42.629Z,9.747495
2022-08-30T05:53:42.616Z,9.747538
2022-08-30T05:54:42.641Z,9.747551
2022-08-30T05:55:42.604Z,9.747519
2022-08-30T05:56:42.625Z,9.747442
2022-08-30T05:57:42.607Z,9.747487
2022-08-30T05:58:42.582Z,9.747493
2022-08-30T05:59:42.606Z,9.747521
2022-08-30T06:00:42.571Z,9.747514
2022-08-30T06:01:42.687Z,9.747440
2022-08-30T06:02:42.600Z,9.747521
2022-08-30T06:03:42.548Z,9.747513
2022-08-30T06:04:42.561Z,9.747491
2022-08-30T06:05:42.571Z,9.747547
2022-08-30T06:06:42.520Z,9.747471
2022-08-30T06:07:42.511Z,9.747508
2022-08-30T06:08:42.507Z,9.747439
2022-08-30T06:09:42.526Z,9.747543
2022-08-30T06:10:42.493Z,9.747530
2022-08-30T06:11:42.482Z,9.747514
2022-08-30T06:12:42.469Z,9.747594
2022-08-30T06:13:42.472Z,9.747462
2022-08-30T06:14:42.492Z,9.747539
2022-08-30T06:15:42.477Z,9.747524
2022-08-30T06:16:42.444Z,9.747562
2022-08-30T06:17:42.440Z,9.747551
2022-08-30T06:18:42.430Z,9.747489
2022-08-30T06:19:42.418Z,9.747471
2022-08-30T06:20:42.441Z,9.747462
2022-08-30T06:21:42.402Z,9.747499
2022-08-30T06:22:42.396Z,9.747435
2022-08-30T06:23:42.391Z,9.747540
2022-08-30T06:24:57.089Z,9.747560
2022-08-30T06:25:44.399Z,9.747443
2022-08-30T06:26:42.364Z,9.747379
2022-08-30T06:27:42.364Z,9.747425
2022-08-30T06:28:42.364Z,9.747458
2022-08-30T06:29:42.343Z,9.747435
2022-08-30T06:30:42.362Z,9.747450
2022-08-30T06:31:42.359Z,9.747423
2022-08-30T06:32:42.323Z,9.747406
2022-08-30T06:33:42.310Z,9.747391
2022-08-30T06:34:42.327Z,9.747365
2022-08-30T06:35:58.260Z,9.747429
2022-08-30T06:36:44.294Z,9.747489
2022-08-30T06:37:42.284Z,9.747530
2022-08-30T06:38:42.280Z,9.747436
2022-08-30T06:39:42.272Z,9.747407
2022-08-30T06:40:42.343Z,9.747478
2022-08-30T06:41:42.262Z,9.747349
2022-08-30T06:42:42.246Z,9.747412
2022-08-30T06:43:46.762Z,9.747418
2022-08-30T06:44:45.702Z,9.747485
2022-08-30T06:45:42.251Z,9.747401
2022-08-30T06:46:42.321Z,9.747420
2022-08-30T06:47:42.202Z,9.747440
2022-08-30T06:48:43.096Z,9.747464
2022-08-30T06:49:42.182Z,9.747441
2022-08-30T06:50:43.205Z,9.747494
2022-08-30T06:51:42.169Z,9.747414
2022-08-30T06:52:42.164Z,9.747414
2022-08-30T06:53:42.192Z,9.747421
2022-08-30T06:54:42.155Z,9.747482
2022-08-30T06:55:42.163Z,9.747407
2022-08-30T06:56:57.712Z,9.747433
2022-08-30T06:57:44.125Z,9.747424
2022-08-30T06:58:42.129Z,9.747463
2022-08-30T06:59:42.105Z,9.747492
2022-08-30T07:00:42.143Z,9.747437
2022-08-30T07:01:42.162Z,9.747381
2022-08-30T07:02:42.141Z,9.747388
2022-08-30T07:03:42.079Z,9.747416
2022-08-30T07:04:42.078Z,9.747480
2022-08-30T07:05:42.089Z,9.747471
2022-08-30T07:06:42.057Z,9.747498
2022-08-30T07:07:42.051Z,9.747404
2022-08-30T07:08:42.036Z,9.747400
2022-08-30T07:09:42.031Z,9.747445
2022-08-30T07:10:42.046Z,9.747399
2022-08-30T07:11:42.021Z,9.747391
2022-08-30T07:12:42.004Z,9.747416
2022-08-30T07:13:42.002Z,9.747422
2022-08-30T07:14:41.996Z,9.747423
2022-08-30T07:15:42.072Z,9.747454
2022-08-30T07:16:41.976Z,9.747529
2022-08-30T07:17:41.966Z,9.747415
2022-08-30T07:18:41.960Z,9.747478
2022-08-30T07:19:41.946Z,9.747518
2022-08-30T07:20:41.990Z,9.747499
2022-08-30T07:21:41.995Z,9.747416
2022-08-30T07:22:41.925Z,9.747488
2022-08-30T07:23:41.925Z,9.747399
2022-08-30T07:24:41.913Z,9.747416
2022-08-30T07:25:41.939Z,9.747351
2022-08-30T07:26:41.893Z,9.747452
2022-08-30T07:27:41.888Z,9.747358
2022-08-30T07:28:41.882Z,9.747510
2022-08-30T07:29:41.855Z,9.747495
2022-08-30T07:30:42.893Z,9.747498
2022-08-30T07:31:41.860Z,9.747457
2022-08-30T07:32:41.848Z,9.747439
2022-08-30T07:33:41.850Z,9.747376
2022-08-30T07:34:41.831Z,9.747590
2022-08-30T07:35:41.896Z,9.747419
2022-08-30T07:36:41.871Z,9.747454
2022-08-30T07:37:41.810Z,9.747388
2022-08-30T07:38:41.800Z,9.747393
2022-08-30T07:39:45.843Z,9.747411
2022-08-30T07:40:43.931Z,9.747316
2022-08-30T07:41:41.780Z,9.747257
2022-08-30T07:42:41.779Z,9.747371
2022-08-30T07:43:41.764Z,9.747272
2022-08-30T07:44:41.756Z,9.747279
2022-08-30T07:45:41.765Z,9.747296
2022-08-30T07:46:41.820Z,9.747214
2022-08-30T07:47:41.744Z,9.747285
2022-08-30T07:48:41.733Z,9.747316
2022-08-30T07:49:41.756Z,9.747348
2022-08-30T07:50:41.746Z,9.747248
2022-08-30T07:51:41.714Z,9.747331
2022-08-30T07:52:41.716Z,9.747352
2022-08-30T07:53:41.692Z,9.747315
2022-08-30T07:54:41.685Z,9.747338
2022-08-30T07:55:41.680Z,9.747231
2022-08-30T07:56:41.696Z,9.747237
2022-08-30T07:57:41.670Z,9.747297
2022-08-30T07:58:41.660Z,9.747404
2022-08-30T07:59:41.663Z,9.747345
2022-08-30T08:00:41.642Z,9.747383
2022-08-30T08:01:41.727Z,9.747414
2022-08-30T08:02:41.669Z,9.747398
2022-08-30T08:03:41.619Z,9.747312
2022-08-30T08:04:41.648Z,9.747395
2022-08-30T08:05:41.612Z,9.747229
2022-08-30T08:06:41.621Z,9.747232
2022-08-30T08:07:41.586Z,9.747307
2022-08-30T08:08:41.594Z,9.747517
2022-08-30T08:09:41.587Z,9.747443
2022-08-30T08:10:41.564Z,9.747169
2022-08-30T08:11:41.573Z,9.747213
2022-08-30T08:12:41.541Z,9.747089
2022-08-30T08:13:48.972Z,9.747400
2022-08-30T08:14:42.540Z,9.747585
2022-08-30T08:15:41.553Z,9.747531
2022-08-30T08:16:41.543Z,9.747256
2022-08-30T08:17:41.503Z,9.747561
2022-08-30T08:18:41.507Z,9.747465
2022-08-30T08:19:41.499Z,9.746710
2022-08-30T08:20:41.483Z,9.747153
2022-08-30T08:21:41.503Z,9.747284
2022-08-30T08:22:41.474Z,9.747678
2022-08-30T08:23:41.463Z,9.747381
2022-08-30T08:24:41.448Z,9.747461
2022-08-30T08:25:41.434Z,9.747358
2022-08-30T08:26:45.262Z,9.747437
2022-08-30T08:27:41.438Z,9.747417
2022-08-30T08:28:41.441Z,9.747388
2022-08-30T08:29:41.431Z,9.747618
2022-08-30T08:30:45.107Z,9.747412
2022-08-30T08:31:43.454Z,9.747384
2022-08-30T08:32:41.750Z,9.747267
2022-08-30T08:33:41.387Z,9.747319
2022-08-30T08:34:41.390Z,9.747444
2022-08-30T08:35:41.398Z,9.747597
2022-08-30T08:36:41.403Z,9.747540
2022-08-30T08:37:41.358Z,9.747330
2022-08-30T08:38:41.335Z,9.747378
2022-08-30T08:39:41.343Z,9.747122
2022-08-30T08:40:41.369Z,9.747319
2022-08-30T08:41:41.356Z,9.747110
2022-08-30T08:42:41.345Z,9.747015
2022-08-30T08:43:41.308Z,9.747070
2022-08-30T08:44:41.339Z,9.747160
2022-08-30T08:45:41.288Z,9.747301
2022-08-30T08:46:41.388Z,9.747422
2022-08-30T08:47:41.277Z,9.747346
2022-08-30T08:48:59.103Z,9.747331
2022-08-30T08:49:43.263Z,9.747400
2022-08-30T08:50:41.305Z,9.747378
2022-08-30T08:51:41.272Z,9.747401
2022-08-30T08:52:41.237Z,9.747297
2022-08-30T08:53:48.372Z,9.747257
2022-08-30T08:54:43.241Z,9.747272
2022-08-30T08:55:41.253Z,9.747398
2022-08-30T08:56:41.285Z,9.747353
2022-08-30T08:57:41.212Z,9.747222
2022-08-30T08:58:41.250Z,9.747338
2022-08-30T08:59:41.193Z,9.747407
2022-08-30T09:00:41.219Z,9.747423
2022-08-30T09:01:41.265Z,9.747670
2022-08-30T09:02:41.163Z,9.747343
2022-08-30T09:03:41.164Z,9.747643
2022-08-30T09:04:41.168Z,9.747485
2022-08-30T09:05:41.141Z,9.747603
2022-08-30T09:06:45.377Z,9.747619
2022-08-30T09:07:41.123Z,9.747583
2022-08-30T09:08:41.161Z,9.747516
2022-08-30T09:09:41.144Z,9.747429
2022-08-30T09:10:50.500Z,9.747486
2022-08-30T09:11:59.134Z,9.747418
2022-08-30T09:12:42.101Z,9.747396
2022-08-30T09:13:41.079Z,9.747444
2022-08-30T09:14:45.969Z,9.747431
2022-08-30T09:15:42.093Z,9.747470
2022-08-30T09:16:41.112Z,9.747419
2022-08-30T09:17:41.061Z,9.747488
2022-08-30T09:18:41.061Z,9.747439
2022-08-30T09:19:41.035Z,9.747479
2022-08-30T09:20:41.023Z,9.747503
2022-08-30T09:21:41.433Z,9.747411
2022-08-30T09:22:40.993Z,9.747516
2022-08-30T09:23:41.010Z,9.747532
2022-08-30T09:24:40.984Z,9.747537
2022-08-30T09:25:41.903Z,9.747572
2022-08-30T09:26:42.002Z,9.747554
2022-08-30T09:27:40.957Z,9.747461
2022-08-30T09:28:40.944Z,9.747517
2022-08-30T09:29:40.961Z,9.747614
2022-08-30T09:30:41.046Z,9.747534
2022-08-30T09:31:40.957Z,9.747547
2022-08-30T09:32:40.910Z,9.747676
2022-08-30T09:33:40.921Z,9.747611
2022-08-30T09:34:40.903Z,9.747544
2022-08-30T09:35:40.887Z,9.747509
2022-08-30T09:36:40.929Z,9.747482
2022-08-30T09:37:40.885Z,9.747503
2022-08-30T09:38:40.863Z,9.747366
2022-08-30T09:39:40.858Z,9.747379
2022-08-30T09:40:40.896Z,9.747459
2022-08-30T09:41:41.868Z,9.747491
2022-08-30T09:42:40.836Z,9.747585
2022-08-30T09:43:40.837Z,9.747556
2022-08-30T09:44:40.822Z,9.747680
2022-08-30T09:45:40.812Z,9.747508
2022-08-30T09:46:40.896Z,9.747559
2022-08-30T09:47:40.819Z,9.747520
2022-08-30T09:48:40.798Z,9.747540
2022-08-30T09:49:40.785Z,9.747534
2022-08-30T09:50:42.281Z,9.747561
2022-08-30T09:51:40.825Z,9.747590
2022-08-30T09:52:40.948Z,9.747627
2022-08-30T09:53:50.949Z,9.747631
2022-08-30T09:54:42.744Z,9.747653
2022-08-30T09:55:40.748Z,9.747791
2022-08-30T09:56:40.726Z,9.747860
2022-08-30T09:57:40.756Z,9.747725
2022-08-30T09:58:40.718Z,9.747832
2022-08-30T09:59:40.716Z,9.747716
2022-08-30T10:00:40.694Z,9.747731
2022-08-30T10:01:40.746Z,9.747544
2022-08-30T10:02:40.706Z,9.747561
2022-08-30T10:03:41.204Z,9.747630
2022-08-30T10:04:40.671Z,9.747478
2022-08-30T10:05:40.673Z,9.747424
2022-08-30T10:06:42.090Z,9.747602
2022-08-30T10:07:40.645Z,9.747640
2022-08-30T10:08:40.682Z,9.747651
2022-08-30T10:09:40.659Z,9.747534
2022-08-30T10:10:45.254Z,9.747674
2022-08-30T10:11:42.649Z,9.747675
2022-08-30T10:12:40.620Z,9.747233
2022-08-30T10:13:40.718Z,9.747322
2022-08-30T10:14:40.591Z,9.747360
2022-08-30T10:15:40.593Z,9.747474
2022-08-30T10:16:40.620Z,9.747594
2022-08-30T10:17:40.571Z,9.747588
2022-08-30T10:18:40.558Z,9.747501
2022-08-30T10:19:40.549Z,9.747051
2022-08-30T10:20:40.559Z,9.747004
2022-08-30T10:21:40.577Z,9.747170
2022-08-30T10:22:40.530Z,9.747313
2022-08-30T10:23:40.520Z,9.747460
2022-08-30T10:24:40.522Z,9.747517
2022-08-30T10:25:40.566Z,9.747490
2022-08-30T10:26:40.536Z,9.747493
2022-08-30T10:27:40.480Z,9.747458
2022-08-30T10:28:41.482Z,9.747313
2022-08-30T10:29:42.506Z,9.747431
2022-08-30T10:30:41.464Z,9.747412
2022-08-30T10:31:40.457Z,9.747459
2022-08-30T10:32:40.481Z,9.747447
2022-08-30T10:33:40.458Z,9.747474
2022-08-30T10:34:40.446Z,9.747532
2022-08-30T10:35:40.443Z,9.747531
2022-08-30T10:36:40.449Z,9.747532
2022-08-30T10:37:40.423Z,9.747418
2022-08-30T10:38:40.409Z,9.747256
2022-08-30T10:39:40.400Z,9.747326
2022-08-30T10:40:40.457Z,9.747405
2022-08-30T10:41:40.410Z,9.747316
2022-08-30T10:42:40.382Z,9.747356
2022-08-30T10:43:40.408Z,9.747349
2022-08-30T10:44:41.313Z,9.747280
2022-08-30T10:45:40.362Z,9.747368
2022-08-30T10:46:40.377Z,9.747304
2022-08-30T10:47:40.340Z,9.747338
2022-08-30T10:48:40.362Z,9.747327
2022-08-30T10:49:40.622Z,9.747404
2022-08-30T10:50:41.444Z,9.747326
2022-08-30T10:51:40.345Z,9.747315
2022-08-30T10:52:40.304Z,9.747399
2022-08-30T10:53:40.299Z,9.747400
2022-08-30T10:54:40.289Z,9.747375
2022-08-30T10:55:40.301Z,9.747404
2022-08-30T10:56:40.310Z,9.747341
2022-08-30T10:57:41.877Z,9.747305
2022-08-30T10:58:40.265Z,9.747422
2022-08-30T10:59:40.251Z,9.747380
2022-08-30T11:00:40.251Z,9.747477
2022-08-30T11:01:46.647Z,9.747293
2022-08-30T11:02:41.293Z,9.747410
2022-08-30T11:03:40.249Z,9.747315
2022-08-30T11:04:40.244Z,9.747384
2022-08-30T11:05:42.080Z,9.747311
2022-08-30T11:06:40.195Z,9.747334
2022-08-30T11:07:40.192Z,9.747268
2022-08-30T11:08:40.187Z,9.747339
2022-08-30T11:09:40.205Z,9.747293
2022-08-30T11:10:40.161Z,9.747313
2022-08-30T11:11:40.736Z,9.747351
2022-08-30T11:12:40.158Z,9.747286
2022-08-30T11:13:40.141Z,9.747257
2022-08-30T11:14:40.170Z,9.747289
2022-08-30T11:15:40.151Z,9.747343
2022-08-30T11:16:40.131Z,9.747331
2022-08-30T11:17:40.120Z,9.747363
2022-08-30T11:18:40.105Z,9.747251
2022-08-30T11:19:40.852Z,9.747350
2022-08-30T11:20:40.094Z,9.747298
2022-08-30T11:21:40.087Z,9.747293
2022-08-30T11:22:40.093Z,9.747330
2022-08-30T11:23:40.086Z,9.747342
2022-08-30T11:24:40.107Z,9.747358
2022-08-30T11:25:40.069Z,9.747316
2022-08-30T11:26:40.054Z,9.747311
2022-08-30T11:27:41.045Z,9.747332
2022-08-30T11:28:40.036Z,9.747223
2022-08-30T11:29:40.058Z,9.747287
2022-08-30T11:30:40.037Z,9.747437
2022-08-30T11:31:40.017Z,9.747335
2022-08-30T11:32:40.014Z,9.747250
2022-08-30T11:33:40.007Z,9.747193
2022-08-30T11:34:40.025Z,9.747275
2022-08-30T11:35:40.341Z,9.747370
2022-08-30T11:36:46.326Z,9.747389
2022-08-30T11:37:40.973Z,9.747463
2022-08-30T11:38:39.960Z,9.747469
2022-08-30T11:39:39.981Z,9.747371
2022-08-30T11:40:39.958Z,9.747336
2022-08-30T11:41:42.621Z,9.747357
2022-08-30T11:43:39.951Z,9.747380
2022-08-30T11:44:39.938Z,9.747355
2022-08-30T11:45:39.928Z,9.747388